createdAt,value
2019-01-24T00:00:54.245Z,34.27
2019-01-24T00:02:55.093Z,33.73
2019-01-24T00:04:56.196Z,33.07
2019-01-24T00:06:57.027Z,33.60
2019-01-24T00:08:57.913Z,33.10
2019-01-24T00:10:58.752Z,35.27
2019-01-24T00:12:59.607Z,34.30
2019-01-24T00:15:00.440Z,33.60
2019-01-24T00:17:01.260Z,33.53
2019-01-24T00:19:02.461Z,35.73
2019-01-24T00:21:03.282Z,34.10
2019-01-24T00:23:04.297Z,33.63
2019-01-24T00:25:05.182Z,34.30
2019-01-24T00:27:06.016Z,34.00
2019-01-24T00:29:06.959Z,34.73
2019-01-24T00:31:07.877Z,33.37
2019-01-24T00:33:08.712Z,33.63
2019-01-24T00:35:09.589Z,35.60
2019-01-24T00:37:10.432Z,34.17
2019-01-24T00:39:11.272Z,33.90
2019-01-24T00:41:12.128Z,34.67
2019-01-24T00:43:12.956Z,34.23
2019-01-24T00:45:14.049Z,34.23
2019-01-24T00:47:14.904Z,35.70
2019-01-24T00:49:15.733Z,35.23
2019-01-24T00:51:16.576Z,35.13
2019-01-24T00:53:17.680Z,35.17
2019-01-24T00:55:18.503Z,35.33
2019-01-24T00:57:19.328Z,34.00
2019-01-24T00:59:20.177Z,33.90
2019-01-24T01:01:21.013Z,35.43
2019-01-24T01:03:21.844Z,34.83
2019-01-24T01:05:22.704Z,33.20
2019-01-24T01:07:23.528Z,32.33
2019-01-24T01:09:24.377Z,32.50
2019-01-24T01:11:25.304Z,32.53
2019-01-24T01:13:26.148Z,32.90
2019-01-24T01:15:27.325Z,33.63
2019-01-24T01:17:28.352Z,34.30
2019-01-24T01:19:29.180Z,33.83
2019-01-24T01:21:30.024Z,32.07
2019-01-24T01:23:30.863Z,31.87
2019-01-24T01:25:32.700Z,32.90
2019-01-24T01:27:33.540Z,33.37
2019-01-24T01:29:34.393Z,32.67
2019-01-24T01:31:35.228Z,33.13
2019-01-24T01:33:36.061Z,34.80
2019-01-24T01:35:36.893Z,32.63
2019-01-24T01:37:37.744Z,32.87
2019-01-24T01:39:38.840Z,34.80
2019-01-24T01:41:39.673Z,32.47
2019-01-24T01:43:40.824Z,34.03
2019-01-24T01:45:41.664Z,33.37
2019-01-24T01:47:42.791Z,33.43
2019-01-24T01:49:43.625Z,33.07
2019-01-24T01:51:44.465Z,33.40
2019-01-24T01:53:45.708Z,34.63
2019-01-24T01:55:46.546Z,34.47
2019-01-24T01:57:47.396Z,34.03
2019-01-24T01:59:48.516Z,34.77
2019-01-24T02:01:49.636Z,34.67
2019-01-24T02:03:50.464Z,33.70
2019-01-24T02:05:51.312Z,35.03
2019-01-24T02:07:52.448Z,35.67
2019-01-24T02:09:53.293Z,34.03
2019-01-24T02:11:54.145Z,34.27
2019-01-24T02:13:55.012Z,33.87
2019-01-24T02:15:55.869Z,34.17
2019-01-24T02:17:56.696Z,34.73
2019-01-24T02:19:57.527Z,34.60
2019-01-24T02:21:58.700Z,33.90
2019-01-24T02:23:59.536Z,34.87
2019-01-24T02:26:00.381Z,33.20
2019-01-24T02:28:01.219Z,33.00
2019-01-24T02:30:02.056Z,34.07
2019-01-24T02:32:02.902Z,34.60
2019-01-24T02:34:03.757Z,33.87
2019-01-24T02:36:04.586Z,34.97
2019-01-24T02:38:05.428Z,34.80
2019-01-24T02:40:06.262Z,34.00
2019-01-24T02:42:07.104Z,36.10
2019-01-24T02:44:07.945Z,33.50
2019-01-24T02:46:09.122Z,32.60
2019-01-24T02:48:09.944Z,34.30
2019-01-24T02:50:10.796Z,34.70
2019-01-24T02:52:11.620Z,34.23
2019-01-24T02:54:12.448Z,33.73
2019-01-24T02:56:13.300Z,34.00
2019-01-24T02:58:14.415Z,34.90
2019-01-24T03:00:15.241Z,34.50
2019-01-24T03:02:16.086Z,34.07
2019-01-24T03:04:16.926Z,36.33
2019-01-24T03:06:17.777Z,34.07
2019-01-24T03:08:18.872Z,35.40
2019-01-24T03:10:19.725Z,34.67
2019-01-24T03:12:20.848Z,34.10
2019-01-24T03:14:22.021Z,34.80
2019-01-24T03:16:22.862Z,32.87
2019-01-24T03:18:23.961Z,34.30
2019-01-24T03:20:25.121Z,34.83
2019-01-24T03:22:25.968Z,34.00
2019-01-24T03:24:26.813Z,34.87
2019-01-24T03:26:27.640Z,34.63
2019-01-24T03:28:28.486Z,34.37
2019-01-24T03:30:29.313Z,34.07
2019-01-24T03:32:30.142Z,34.27
2019-01-24T03:34:30.988Z,33.77
2019-01-24T03:36:31.821Z,32.63
2019-01-24T03:38:32.640Z,36.23
2019-01-24T03:40:33.488Z,33.83
2019-01-24T03:42:34.319Z,34.90
2019-01-24T03:44:35.165Z,33.10
2019-01-24T03:46:36.016Z,34.63
2019-01-24T03:48:36.844Z,32.53
2019-01-24T03:50:37.708Z,34.97
2019-01-24T03:52:38.835Z,33.90
2019-01-24T03:54:39.973Z,34.87
2019-01-24T03:56:40.821Z,34.73
2019-01-24T03:58:41.661Z,34.60
2019-01-24T04:00:42.492Z,33.93
2019-01-24T04:02:43.356Z,33.47
2019-01-24T04:04:44.458Z,32.43
2019-01-24T04:06:45.280Z,34.37
2019-01-24T04:08:46.436Z,32.43
2019-01-24T04:10:47.269Z,33.97
2019-01-24T04:12:48.111Z,33.20
2019-01-24T04:14:48.945Z,34.93
2019-01-24T04:16:49.796Z,33.03
2019-01-24T04:18:50.896Z,34.10
2019-01-24T04:20:51.743Z,34.00
2019-01-24T04:22:52.876Z,31.97
2019-01-24T04:24:54.019Z,33.17
2019-01-24T04:26:54.861Z,32.90
2019-01-24T04:28:55.692Z,32.97
2019-01-24T04:30:56.516Z,32.30
2019-01-24T04:32:57.371Z,34.07
2019-01-24T04:34:58.188Z,32.80
2019-01-24T04:36:59.342Z,32.60
2019-01-24T04:39:00.169Z,33.57
2019-01-24T04:41:00.997Z,33.47
2019-01-24T04:43:01.845Z,34.00
2019-01-24T04:45:03.085Z,32.07
2019-01-24T04:47:03.904Z,32.67
2019-01-24T04:49:04.729Z,34.27
2019-01-24T04:51:05.585Z,33.60
2019-01-24T04:53:06.697Z,33.03
2019-01-24T04:55:07.958Z,32.93
2019-01-24T04:57:08.800Z,34.10
2019-01-24T04:59:09.655Z,32.63
2019-01-24T05:01:10.762Z,32.77
2019-01-24T05:03:11.596Z,32.03
2019-01-24T05:05:12.444Z,34.17
2019-01-24T05:07:13.269Z,34.03
2019-01-24T05:09:14.416Z,34.63
2019-01-24T05:11:15.573Z,33.80
2019-01-24T05:13:16.669Z,35.30
2019-01-24T05:15:17.495Z,32.83
2019-01-24T05:17:18.665Z,34.23
2019-01-24T05:19:19.509Z,34.70
2019-01-24T05:21:20.636Z,34.50
2019-01-24T05:23:21.465Z,35.03
2019-01-24T05:25:22.296Z,34.40
2019-01-24T05:27:23.145Z,33.67
2019-01-24T05:29:23.973Z,34.07
2019-01-24T05:31:25.108Z,34.00
2019-01-24T05:33:25.933Z,34.27
2019-01-24T05:35:26.761Z,33.87
2019-01-24T05:37:27.608Z,34.47
2019-01-24T05:39:28.469Z,33.63
2019-01-24T05:41:29.295Z,35.17
2019-01-24T05:43:30.128Z,34.30
2019-01-24T05:45:31.034Z,34.20
2019-01-24T05:47:31.904Z,34.20
2019-01-24T05:49:32.748Z,34.07
2019-01-24T05:51:33.581Z,34.77
2019-01-24T05:53:34.682Z,35.33
2019-01-24T05:55:35.504Z,34.23
2019-01-24T05:57:36.365Z,33.73
2019-01-24T05:59:37.188Z,34.03
2019-01-24T06:01:38.528Z,33.97
2019-01-24T06:03:39.380Z,34.43
2019-01-24T06:05:41.842Z,33.73
2019-01-24T06:07:43.036Z,33.47
2019-01-24T06:09:43.864Z,35.03
2019-01-24T06:11:44.711Z,35.17
2019-01-24T06:13:45.552Z,34.50
2019-01-24T06:15:46.418Z,35.80
2019-01-24T06:17:47.256Z,34.77
2019-01-24T06:19:48.108Z,36.33
2019-01-24T06:21:48.954Z,35.77
2019-01-24T06:23:49.860Z,34.90
2019-01-24T06:25:51.065Z,35.53
2019-01-24T06:27:52.224Z,37.17
2019-01-24T06:29:53.054Z,36.40
2019-01-24T06:31:54.201Z,37.93
2019-01-24T06:33:55.036Z,36.87
2019-01-24T06:35:55.888Z,36.40
2019-01-24T06:37:56.720Z,35.50
2019-01-24T06:39:57.550Z,34.63
2019-01-24T06:41:58.396Z,34.83
2019-01-24T06:44:00.291Z,35.83
2019-01-24T06:46:01.240Z,34.97
2019-01-24T06:48:02.097Z,36.03
2019-01-24T06:50:02.925Z,37.10
2019-01-24T06:52:03.757Z,36.00
2019-01-24T06:54:04.600Z,35.17
2019-01-24T06:56:05.456Z,34.90
2019-01-24T06:58:06.545Z,35.17
2019-01-24T07:00:07.704Z,35.13
2019-01-24T07:02:08.524Z,36.70
2019-01-24T07:04:09.354Z,35.30
2019-01-24T07:06:10.513Z,35.70
2019-01-24T07:08:11.331Z,34.13
2019-01-24T07:10:12.184Z,35.43
2019-01-24T07:12:13.296Z,34.47
2019-01-24T07:14:14.150Z,36.07
2019-01-24T07:16:14.972Z,38.10
2019-01-24T07:18:15.833Z,38.20
2019-01-24T07:20:16.686Z,37.20
2019-01-24T07:22:17.768Z,36.23
2019-01-24T07:24:18.621Z,37.03
2019-01-24T07:26:19.448Z,36.43
2019-01-24T07:28:20.293Z,37.13
2019-01-24T07:30:21.121Z,35.20
2019-01-24T07:32:21.970Z,36.13
2019-01-24T07:34:22.801Z,36.67
2019-01-24T07:36:23.653Z,34.93
2019-01-24T07:38:24.487Z,35.53
2019-01-24T07:40:25.340Z,37.30
2019-01-24T07:42:26.179Z,38.00
2019-01-24T07:44:27.025Z,38.00
2019-01-24T07:46:28.200Z,35.87
2019-01-24T07:48:29.020Z,36.00
2019-01-24T07:50:29.869Z,37.40
2019-01-24T07:52:30.693Z,35.83
2019-01-24T07:54:31.552Z,36.20
2019-01-24T07:56:32.395Z,36.13
2019-01-24T07:58:33.269Z,36.37
2019-01-24T08:00:34.133Z,36.23
2019-01-24T08:02:34.968Z,35.90
2019-01-24T08:04:35.804Z,35.77
2019-01-24T08:06:36.932Z,36.43
2019-01-24T08:08:38.056Z,37.50
2019-01-24T08:10:39.205Z,44.55
2019-01-24T08:12:40.055Z,39.93
2019-01-24T08:14:41.192Z,37.27
2019-01-24T08:16:42.016Z,19.70
2019-01-24T08:18:42.884Z,46.07
2019-01-24T08:20:44.068Z,36.80
2019-01-24T08:22:45.025Z,34.00
2019-01-24T08:24:45.844Z,38.33
2019-01-24T08:26:46.696Z,36.03
2019-01-24T08:28:47.524Z,35.93
2019-01-24T08:30:48.368Z,38.37
2019-01-24T08:32:49.193Z,61.23
2019-01-24T08:34:50.045Z,38.43
2019-01-24T08:36:50.881Z,36.10
2019-01-24T08:38:51.808Z,36.20
2019-01-24T08:40:52.661Z,50.50
2019-01-24T08:42:53.516Z,36.87
2019-01-24T08:44:54.359Z,36.43
2019-01-24T08:46:55.624Z,35.07
2019-01-24T08:48:56.464Z,33.83
2019-01-24T08:50:57.292Z,36.07
2019-01-24T08:52:58.133Z,36.43
2019-01-24T08:54:58.986Z,35.67
2019-01-24T08:56:59.843Z,34.67
2019-01-24T08:59:01.032Z,35.07
2019-01-24T09:01:01.856Z,35.90
2019-01-24T09:03:02.708Z,35.10
2019-01-24T09:05:03.877Z,35.27
2019-01-24T09:07:04.725Z,36.43
2019-01-24T09:09:05.549Z,35.07
2019-01-24T09:11:06.396Z,36.63
2019-01-24T09:13:07.248Z,36.03
2019-01-24T09:15:08.108Z,34.73
2019-01-24T09:17:08.924Z,34.03
2019-01-24T09:19:09.753Z,35.47
2019-01-24T09:21:10.588Z,33.83
2019-01-24T09:23:11.452Z,34.00
2019-01-24T09:25:12.291Z,36.33
2019-01-24T09:27:13.132Z,36.13
2019-01-24T09:29:13.964Z,35.70
2019-01-24T09:31:14.827Z,35.97
2019-01-24T09:33:15.673Z,35.10
2019-01-24T09:35:16.501Z,36.37
2019-01-24T09:37:17.349Z,35.00
2019-01-24T09:39:18.182Z,35.27
2019-01-24T09:41:19.024Z,35.63
2019-01-24T09:43:20.180Z,36.77
2019-01-24T09:45:21.028Z,35.50
2019-01-24T09:47:21.860Z,35.97
2019-01-24T09:49:22.706Z,35.57
2019-01-24T09:51:23.541Z,34.50
2019-01-24T09:53:24.396Z,35.93
2019-01-24T09:55:25.312Z,36.97
2019-01-24T09:57:26.420Z,35.30
2019-01-24T09:59:27.263Z,35.53
2019-01-24T10:01:28.096Z,36.10
2019-01-24T10:03:28.936Z,36.00
2019-01-24T10:05:29.768Z,35.67
2019-01-24T10:07:30.611Z,34.73
2019-01-24T10:09:31.464Z,36.07
2019-01-24T10:11:32.565Z,36.30
2019-01-24T10:13:33.722Z,36.40
2019-01-24T10:15:34.573Z,35.37
2019-01-24T10:17:35.681Z,36.37
2019-01-24T10:19:36.526Z,36.03
2019-01-24T10:21:37.372Z,36.97
2019-01-24T10:23:38.196Z,36.90
2019-01-24T10:25:39.030Z,35.70
2019-01-24T10:27:40.172Z,36.60
2019-01-24T10:29:41.002Z,37.90
2019-01-24T10:31:41.828Z,36.27
2019-01-24T10:33:42.968Z,35.50
2019-01-24T10:35:43.813Z,35.10
2019-01-24T10:37:44.665Z,37.13
2019-01-24T10:39:45.785Z,36.60
2019-01-24T10:41:46.614Z,36.97
2019-01-24T10:43:47.453Z,38.63
2019-01-24T10:45:48.592Z,36.07
2019-01-24T10:47:49.429Z,37.63
2019-01-24T10:49:50.260Z,34.47
2019-01-24T10:51:51.109Z,40.37
2019-01-24T10:53:51.937Z,39.20
2019-01-24T10:55:52.800Z,38.50
2019-01-24T10:57:53.645Z,40.33
2019-01-24T10:59:54.486Z,38.93
2019-01-24T11:01:55.601Z,39.43
2019-01-24T11:03:56.797Z,45.37
2019-01-24T11:05:57.621Z,40.77
2019-01-24T11:07:58.460Z,35.80
2019-01-24T11:09:59.321Z,34.83
2019-01-24T11:12:00.157Z,35.93
2019-01-24T11:14:01.005Z,39.27
2019-01-24T11:16:01.844Z,39.77
2019-01-24T11:18:02.680Z,44.50
2019-01-24T11:20:03.556Z,41.83
2019-01-24T11:22:04.388Z,37.80
2019-01-24T11:24:05.233Z,39.57
2019-01-24T11:26:06.375Z,36.70
2019-01-24T11:28:07.209Z,35.50
2019-01-24T11:30:08.068Z,34.33
2019-01-24T11:32:09.160Z,34.67
2019-01-24T11:34:09.984Z,34.03
2019-01-24T11:36:10.832Z,35.70
2019-01-24T11:38:11.670Z,39.03
2019-01-24T11:40:12.561Z,34.90
2019-01-24T11:42:13.491Z,36.63
2019-01-24T11:44:14.320Z,35.40
2019-01-24T11:46:15.150Z,34.93
2019-01-24T11:48:16.257Z,33.33
2019-01-24T11:50:17.085Z,33.43
2019-01-24T11:52:17.936Z,32.37
2019-01-24T11:54:18.760Z,32.73
2019-01-24T11:56:19.600Z,33.23
2019-01-24T11:58:20.457Z,31.20
2019-01-24T12:00:21.800Z,30.60
2019-01-24T12:02:22.910Z,29.90
2019-01-24T12:04:23.738Z,30.33
2019-01-24T12:06:24.575Z,31.67
2019-01-24T12:08:25.416Z,29.70
2019-01-24T12:10:26.268Z,31.63
2019-01-24T12:12:27.097Z,32.23
2019-01-24T12:14:27.944Z,31.50
2019-01-24T12:16:28.780Z,32.67
2019-01-24T12:18:29.740Z,32.13
2019-01-24T12:20:30.567Z,32.67
2019-01-24T12:22:31.396Z,31.03
2019-01-24T12:24:32.576Z,32.83
2019-01-24T12:26:33.405Z,34.27
2019-01-24T12:28:34.253Z,34.93
2019-01-24T12:30:35.085Z,31.83
2019-01-24T12:32:36.224Z,31.27
2019-01-24T12:34:37.047Z,31.80
2019-01-24T12:36:37.881Z,32.57
2019-01-24T12:38:38.729Z,31.97
2019-01-24T12:40:39.568Z,33.53
2019-01-24T12:42:40.680Z,33.80
2019-01-24T12:44:41.525Z,34.23
2019-01-24T12:46:42.397Z,35.50
2019-01-24T12:48:43.310Z,34.47
2019-01-24T12:50:44.269Z,35.77
2019-01-24T12:52:45.464Z,33.87
2019-01-24T12:54:46.633Z,34.97
2019-01-24T12:56:47.456Z,35.27
2019-01-24T12:58:48.289Z,36.37
2019-01-24T13:00:49.120Z,33.50
2019-01-24T13:02:49.956Z,33.00
2019-01-24T13:04:50.793Z,33.33
2019-01-24T13:06:51.648Z,34.93
2019-01-24T13:08:52.485Z,32.37
2019-01-24T13:10:53.336Z,32.30
2019-01-24T13:12:54.166Z,33.10
2019-01-24T13:14:55.057Z,33.20
2019-01-24T13:16:55.921Z,34.03
2019-01-24T13:18:56.750Z,32.47
2019-01-24T13:20:57.613Z,34.00
2019-01-24T13:22:58.423Z,33.80
2019-01-24T13:24:59.247Z,32.60
2019-01-24T13:27:00.357Z,33.13
2019-01-24T13:29:01.205Z,33.27
2019-01-24T13:31:02.057Z,32.47
2019-01-24T13:33:02.883Z,32.60
2019-01-24T13:35:03.738Z,33.13
2019-01-24T13:37:05.226Z,32.50
2019-01-24T13:39:06.053Z,31.10
2019-01-24T13:41:06.932Z,33.50
2019-01-24T13:43:07.792Z,32.73
2019-01-24T13:45:08.633Z,34.03
2019-01-24T13:47:09.893Z,32.60
2019-01-24T13:49:11.064Z,32.50
2019-01-24T13:51:11.889Z,32.73
2019-01-24T13:53:12.738Z,33.43
2019-01-24T13:55:13.568Z,32.63
2019-01-24T13:57:14.404Z,34.17
2019-01-24T13:59:15.261Z,35.97
2019-01-24T14:01:16.469Z,35.67
2019-01-24T14:03:17.292Z,34.43
2019-01-24T14:05:18.147Z,33.07
2019-01-24T14:07:18.976Z,34.83
2019-01-24T14:09:19.820Z,34.10
2019-01-24T14:11:20.672Z,34.67
2019-01-24T14:13:21.510Z,34.77
2019-01-24T14:15:22.709Z,34.87
2019-01-24T14:17:23.539Z,35.90
2019-01-24T14:19:24.393Z,32.93
2019-01-24T14:21:25.236Z,33.20
2019-01-24T14:23:26.073Z,32.93
2019-01-24T14:25:26.930Z,33.17
2019-01-24T14:27:27.778Z,34.53
2019-01-24T14:29:28.612Z,31.67
2019-01-24T14:31:29.459Z,33.17
2019-01-24T14:33:30.608Z,31.60
2019-01-24T14:35:31.665Z,30.70
2019-01-24T14:37:32.472Z,32.70
2019-01-24T14:39:33.324Z,32.53
2019-01-24T14:41:34.149Z,32.53
2019-01-24T14:43:34.982Z,31.67
2019-01-24T14:45:35.825Z,31.77
2019-01-24T14:47:36.689Z,33.30
2019-01-24T14:49:37.508Z,34.20
2019-01-24T14:51:38.354Z,33.67
2019-01-24T14:53:39.193Z,32.77
2019-01-24T14:55:40.055Z,33.60
2019-01-24T14:57:40.913Z,31.23
2019-01-24T14:59:41.772Z,32.73
2019-01-24T15:01:42.596Z,32.10
2019-01-24T15:03:43.434Z,33.40
2019-01-24T15:05:44.285Z,33.60
2019-01-24T15:07:47.479Z,34.73
2019-01-24T15:09:47.885Z,33.27
2019-01-24T15:11:49.088Z,33.30
2019-01-24T15:13:49.930Z,33.67
2019-01-24T15:15:50.772Z,32.87
2019-01-24T15:17:51.635Z,33.47
2019-01-24T15:19:52.472Z,33.50
2019-01-24T15:21:53.677Z,34.03
2019-01-24T15:23:54.521Z,33.20
2019-01-24T15:25:55.352Z,34.23
2019-01-24T15:27:56.185Z,32.60
2019-01-24T15:29:57.020Z,32.23
2019-01-24T15:31:57.885Z,36.13
2019-01-24T15:33:58.708Z,35.40
2019-01-24T15:35:59.819Z,32.87
2019-01-24T15:38:00.649Z,33.60
2019-01-24T15:40:01.787Z,34.37
2019-01-24T15:42:02.625Z,34.23
2019-01-24T15:44:03.451Z,34.23
2019-01-24T15:46:04.309Z,35.73
2019-01-24T15:48:05.170Z,36.60
2019-01-24T15:50:06.016Z,35.87
2019-01-24T15:52:06.870Z,34.33
2019-01-24T15:54:07.699Z,34.67
2019-01-24T15:56:08.554Z,35.27
2019-01-24T15:58:09.375Z,35.97
2019-01-24T16:00:10.340Z,36.00
2019-01-24T16:02:11.167Z,37.23
2019-01-24T16:04:11.998Z,36.60
2019-01-24T16:06:13.137Z,36.37
2019-01-24T16:08:13.960Z,37.03
2019-01-24T16:10:15.105Z,38.53
2019-01-24T16:12:15.936Z,37.70
2019-01-24T16:14:16.790Z,38.20
2019-01-24T16:16:17.621Z,37.93
2019-01-24T16:18:18.448Z,36.73
2019-01-24T16:20:19.304Z,36.77
2019-01-24T16:22:20.180Z,38.37
2019-01-24T16:24:21.013Z,47.03
2019-01-24T16:26:22.189Z,41.70
2019-01-24T16:28:24.735Z,39.60
2019-01-24T16:30:26.044Z,38.33
2019-01-24T16:32:26.890Z,36.37
2019-01-24T16:34:27.720Z,38.77
2019-01-24T16:36:28.553Z,38.27
2019-01-24T16:38:29.501Z,37.70
2019-01-24T16:40:30.340Z,35.90
2019-01-24T16:42:31.488Z,37.83
2019-01-24T16:44:32.341Z,36.93
2019-01-24T16:46:33.181Z,37.37
2019-01-24T16:48:34.025Z,36.70
2019-01-24T16:50:34.881Z,38.03
2019-01-24T16:52:35.719Z,35.63
2019-01-24T16:54:36.552Z,35.07
2019-01-24T16:56:37.417Z,36.20
2019-01-24T16:58:38.576Z,37.27
2019-01-24T17:00:39.405Z,37.23
2019-01-24T17:02:40.237Z,35.13
2019-01-24T17:04:41.083Z,38.27
2019-01-24T17:06:41.920Z,35.77
2019-01-24T17:08:42.764Z,36.63
2019-01-24T17:10:43.708Z,37.30
2019-01-24T17:12:44.561Z,36.73
2019-01-24T17:14:45.484Z,37.13
2019-01-24T17:16:46.320Z,35.40
2019-01-24T17:18:47.252Z,37.23
2019-01-24T17:20:48.156Z,37.57
2019-01-24T17:22:49.297Z,36.80
2019-01-24T17:24:50.164Z,38.33
2019-01-24T17:26:51.067Z,38.07
2019-01-24T17:28:51.941Z,37.63
2019-01-24T17:30:52.804Z,38.00
2019-01-24T17:32:53.644Z,38.13
2019-01-24T17:34:54.504Z,37.23
2019-01-24T17:36:55.446Z,36.70
2019-01-24T17:38:56.280Z,37.90
2019-01-24T17:40:57.133Z,37.57
2019-01-24T17:42:57.956Z,37.53
2019-01-24T17:44:58.812Z,37.90
2019-01-24T17:47:00.089Z,38.10
2019-01-24T17:49:00.940Z,36.87
2019-01-24T17:51:01.789Z,38.83
2019-01-24T17:53:03.204Z,38.43
2019-01-24T17:55:04.369Z,37.17
2019-01-24T17:57:05.229Z,37.83
2019-01-24T17:59:06.181Z,37.43
2019-01-24T18:01:07.192Z,37.67
2019-01-24T18:03:08.112Z,38.17
2019-01-24T18:05:08.967Z,38.37
2019-01-24T18:07:09.804Z,37.87
2019-01-24T18:09:10.905Z,37.93
2019-01-24T18:11:11.728Z,37.43
2019-01-24T18:13:12.581Z,37.43
2019-01-24T18:15:13.716Z,39.17
2019-01-24T18:17:14.544Z,39.67
2019-01-24T18:19:15.368Z,39.50
2019-01-24T18:21:16.774Z,38.57
2019-01-24T18:23:17.613Z,40.03
2019-01-24T18:25:18.474Z,37.73
2019-01-24T18:27:19.308Z,37.80
2019-01-24T18:29:20.173Z,37.63
2019-01-24T18:31:21.028Z,37.63
2019-01-24T18:33:21.873Z,37.77
2019-01-24T18:35:22.728Z,37.97
2019-01-24T18:37:23.560Z,37.97
2019-01-24T18:39:24.723Z,38.07
2019-01-24T18:41:25.615Z,38.37
2019-01-24T18:43:26.444Z,38.77
2019-01-24T18:45:27.272Z,39.43
2019-01-24T18:47:28.124Z,37.17
2019-01-24T18:49:29.057Z,37.67
2019-01-24T18:51:30.249Z,37.23
2019-01-24T18:53:31.076Z,37.93
2019-01-24T18:55:32.024Z,39.13
2019-01-24T18:57:32.852Z,37.17
2019-01-24T18:59:33.712Z,40.27
2019-01-24T19:01:34.565Z,39.33
2019-01-24T19:03:35.398Z,39.60
2019-01-24T19:05:36.216Z,39.03
2019-01-24T19:07:37.327Z,40.17
2019-01-24T19:09:38.401Z,38.77
2019-01-24T19:11:39.247Z,37.93
2019-01-24T19:13:40.441Z,40.40
2019-01-24T19:15:41.264Z,40.70
2019-01-24T19:17:42.107Z,38.83
2019-01-24T19:19:42.943Z,38.57
2019-01-24T19:21:44.096Z,38.17
2019-01-24T19:23:44.946Z,37.40
2019-01-24T19:25:45.812Z,39.17
2019-01-24T19:27:46.640Z,38.27
2019-01-24T19:29:47.476Z,38.33
2019-01-24T19:31:48.324Z,38.20
2019-01-24T19:33:49.189Z,39.93
2019-01-24T19:35:50.145Z,38.87
2019-01-24T19:37:51.064Z,37.97
2019-01-24T19:39:51.889Z,39.27
2019-01-24T19:41:53.020Z,39.37
2019-01-24T19:43:53.849Z,37.10
2019-01-24T19:45:54.688Z,38.63
2019-01-24T19:47:55.543Z,38.70
2019-01-24T19:49:56.374Z,38.57
2019-01-24T19:51:57.537Z,38.57
2019-01-24T19:53:58.400Z,38.60
2019-01-24T19:55:59.502Z,39.03
2019-01-24T19:58:00.801Z,40.10
2019-01-24T20:00:01.696Z,42.07
2019-01-24T20:02:02.551Z,39.13
2019-01-24T20:04:03.569Z,40.17
2019-01-24T20:06:04.582Z,38.30
2019-01-24T20:08:05.696Z,39.07
2019-01-24T20:10:06.556Z,40.07
2019-01-24T20:12:07.473Z,39.73
2019-01-24T20:14:08.328Z,39.00
2019-01-24T20:16:09.240Z,37.13
2019-01-24T20:18:10.365Z,39.37
2019-01-24T20:20:11.671Z,36.93
2019-01-24T20:22:12.801Z,39.17
2019-01-24T20:24:13.636Z,38.30
2019-01-24T20:26:14.471Z,38.80
2019-01-24T20:28:15.299Z,38.33
2019-01-24T20:30:16.155Z,37.43
2019-01-24T20:32:16.993Z,38.47
2019-01-24T20:34:17.840Z,40.00
2019-01-24T20:36:18.677Z,38.10
2019-01-24T20:38:19.524Z,38.13
2019-01-24T20:40:20.382Z,37.80
2019-01-24T20:42:21.201Z,40.07
2019-01-24T20:44:22.151Z,39.47
2019-01-24T20:46:22.985Z,41.17
2019-01-24T20:48:24.097Z,38.80
2019-01-24T20:50:24.923Z,39.00
2019-01-24T20:52:25.805Z,40.47
2019-01-24T20:54:26.733Z,39.23
2019-01-24T20:56:27.649Z,38.30
2019-01-24T20:58:28.916Z,38.63
2019-01-24T21:00:29.941Z,39.57
2019-01-24T21:02:30.776Z,40.53
2019-01-24T21:04:31.613Z,39.67
2019-01-24T21:06:32.938Z,40.30
2019-01-24T21:08:33.764Z,39.67
2019-01-24T21:10:34.594Z,39.63
2019-01-24T21:12:35.450Z,38.23
2019-01-24T21:14:36.297Z,40.13
2019-01-24T21:16:37.148Z,37.47
2019-01-24T21:18:37.976Z,38.97
2019-01-24T21:20:38.807Z,38.03
2019-01-24T21:22:39.657Z,40.20
2019-01-24T21:24:40.493Z,37.83
2019-01-24T21:26:41.333Z,38.67
2019-01-24T21:28:42.165Z,39.50
2019-01-24T21:30:43.058Z,37.33
2019-01-24T21:32:44.010Z,38.53
2019-01-24T21:34:45.301Z,37.97
2019-01-24T21:36:46.161Z,36.40
2019-01-24T21:38:47.134Z,38.37
2019-01-24T21:40:47.985Z,36.33
2019-01-24T21:42:48.826Z,37.50
2019-01-24T21:44:49.664Z,36.10
2019-01-24T21:46:50.825Z,38.00
2019-01-24T21:48:51.944Z,36.27
2019-01-24T21:50:52.776Z,36.00
2019-01-24T21:52:53.624Z,36.67
2019-01-24T21:54:54.477Z,35.07
2019-01-24T21:56:55.584Z,35.60
2019-01-24T21:58:56.420Z,34.33
2019-01-24T22:00:57.277Z,35.10
2019-01-24T22:02:58.114Z,37.43
2019-01-24T22:04:58.948Z,37.60
2019-01-24T22:06:59.904Z,35.23
2019-01-24T22:09:00.742Z,36.87
2019-01-24T22:11:01.588Z,35.33
2019-01-24T22:13:02.416Z,36.67
2019-01-24T22:15:03.253Z,38.13
2019-01-24T22:17:04.123Z,39.30
2019-01-24T22:19:04.965Z,35.37
2019-01-24T22:21:05.817Z,36.27
2019-01-24T22:23:06.650Z,35.47
2019-01-24T22:25:07.480Z,38.13
2019-01-24T22:27:08.328Z,36.57
2019-01-24T22:29:09.185Z,36.80
2019-01-24T22:31:10.008Z,36.27
2019-01-24T22:33:10.861Z,36.73
2019-01-24T22:35:11.696Z,36.97
2019-01-24T22:37:12.571Z,37.93
2019-01-24T22:39:13.649Z,37.73
2019-01-24T22:41:14.481Z,36.00
2019-01-24T22:43:15.336Z,33.63
2019-01-24T22:45:16.229Z,34.23
2019-01-24T22:47:17.164Z,33.23
2019-01-24T22:49:18.027Z,33.93
2019-01-24T22:51:18.874Z,34.83
2019-01-24T22:53:19.713Z,32.47
2019-01-24T22:55:20.562Z,31.40
2019-01-24T22:57:21.402Z,31.13
2019-01-24T22:59:23.221Z,32.30
2019-01-24T23:01:24.480Z,32.93
2019-01-24T23:03:25.308Z,32.97
2019-01-24T23:05:26.257Z,33.83
2019-01-24T23:07:27.119Z,35.00
2019-01-24T23:09:27.977Z,35.47
2019-01-24T23:11:28.816Z,35.20
2019-01-24T23:13:29.956Z,33.97
2019-01-24T23:15:31.149Z,33.60
2019-01-24T23:17:31.997Z,34.87
2019-01-24T23:19:32.849Z,34.60
2019-01-24T23:21:33.688Z,34.57
2019-01-24T23:23:34.534Z,34.70
2019-01-24T23:25:35.741Z,33.27
2019-01-24T23:27:36.579Z,33.63
2019-01-24T23:29:37.432Z,34.43
2019-01-24T23:31:38.271Z,36.50
2019-01-24T23:33:39.360Z,34.90
2019-01-24T23:35:40.254Z,34.47
2019-01-24T23:37:41.193Z,34.17
2019-01-24T23:39:42.113Z,34.73
2019-01-24T23:41:42.972Z,33.83
2019-01-24T23:43:43.805Z,33.67
2019-01-24T23:45:46.019Z,32.47
2019-01-24T23:47:47.097Z,32.43
2019-01-24T23:49:47.936Z,33.93
2019-01-24T23:51:48.788Z,33.03
2019-01-24T23:53:49.633Z,33.13
2019-01-24T23:55:50.493Z,32.17
2019-01-24T23:57:51.344Z,32.37
2019-01-24T23:59:52.172Z,33.03
